sensor_id;sensor_type;location;lat;lon;timestamp;pressure;altitude;pressure_sealevel;temperature;humidity
60246;BME280;46107;53.356;-1.524;2023-05-11T00:00:49;98609.96;;;12.07;61.25
60246;BME280;46107;53.356;-1.524;2023-05-11T00:03:17;98611.01;;;11.20;61.64
60246;BME280;46107;53.356;-1.524;2023-05-11T00:05:47;98613.49;;;10.89;61.97
60246;BME280;46107;53.356;-1.524;2023-05-11T00:08:15;98616.97;;;10.99;62.23
60246;BME280;46107;53.356;-1.524;2023-05-11T00:10:42;98615.54;;;12.03;60.01
60246;BME280;46107;53.356;-1.524;2023-05-11T00:13:12;98618.43;;;12.53;57.63
60246;BME280;46107;53.356;-1.524;2023-05-11T00:15:39;98613.93;;;12.76;55.93
60246;BME280;46107;53.356;-1.524;2023-05-11T00:18:07;98614.63;;;12.12;56.50
60246;BME280;46107;53.356;-1.524;2023-05-11T00:20:34;98613.69;;;12.47;57.27
60246;BME280;46107;53.356;-1.524;2023-05-11T00:23:02;98614.82;;;11.59;59.37
60246;BME280;46107;53.356;-1.524;2023-05-11T00:25:29;98613.61;;;11.51;59.39
60246;BME280;46107;53.356;-1.524;2023-05-11T00:27:56;98617.05;;;12.86;55.77
60246;BME280;46107;53.356;-1.524;2023-05-11T00:30:24;98615.72;;;12.29;57.15
60246;BME280;46107;53.356;-1.524;2023-05-11T00:32:51;98612.20;;;11.34;58.68
60246;BME280;46107;53.356;-1.524;2023-05-11T00:35:20;98613.17;;;12.43;57.42
60246;BME280;46107;53.356;-1.524;2023-05-11T00:37:48;98613.44;;;12.35;56.39
60246;BME280;46107;53.356;-1.524;2023-05-11T00:40:15;98608.61;;;11.87;58.82
60246;BME280;46107;53.356;-1.524;2023-05-11T00:42:43;98609.86;;;11.96;58.06
60246;BME280;46107;53.356;-1.524;2023-05-11T00:45:11;98609.42;;;12.59;56.95
60246;BME280;46107;53.356;-1.524;2023-05-11T00:47:38;98607.95;;;11.63;58.74
60246;BME280;46107;53.356;-1.524;2023-05-11T00:50:07;98609.46;;;11.65;57.86
60246;BME280;46107;53.356;-1.524;2023-05-11T00:52:34;98611.74;;;10.98;60.77
60246;BME280;46107;53.356;-1.524;2023-05-11T00:55:02;98613.43;;;11.31;59.31
60246;BME280;46107;53.356;-1.524;2023-05-11T00:57:29;98621.68;;;10.54;62.55
60246;BME280;46107;53.356;-1.524;2023-05-11T00:59:58;98616.45;;;11.62;59.69
60246;BME280;46107;53.356;-1.524;2023-05-11T01:02:27;98614.58;;;11.67;60.71
60246;BME280;46107;53.356;-1.524;2023-05-11T01:04:54;98615.39;;;11.88;58.47
60246;BME280;46107;53.356;-1.524;2023-05-11T01:07:24;98615.76;;;11.77;60.17
60246;BME280;46107;53.356;-1.524;2023-05-11T01:10:02;98618.49;;;12.32;56.89
60246;BME280;46107;53.356;-1.524;2023-05-11T01:12:43;98615.21;;;11.37;59.20
60246;BME280;46107;53.356;-1.524;2023-05-11T01:15:16;98615.48;;;11.92;58.53
60246;BME280;46107;53.356;-1.524;2023-05-11T01:17:52;98620.35;;;11.39;61.17
60246;BME280;46107;53.356;-1.524;2023-05-11T01:20:25;98619.16;;;11.53;59.82
60246;BME280;46107;53.356;-1.524;2023-05-11T01:25:39;98620.23;;;11.80;57.50
60246;BME280;46107;53.356;-1.524;2023-05-11T01:28:22;98618.85;;;11.53;59.61
60246;BME280;46107;53.356;-1.524;2023-05-11T01:30:54;98619.84;;;11.41;60.25
60246;BME280;46107;53.356;-1.524;2023-05-11T01:33:29;98621.46;;;12.14;57.72
60246;BME280;46107;53.356;-1.524;2023-05-11T01:36:02;98620.70;;;11.02;60.73
60246;BME280;46107;53.356;-1.524;2023-05-11T01:38:33;98619.43;;;11.31;59.10
60246;BME280;46107;53.356;-1.524;2023-05-11T01:41:08;98623.40;;;10.59;62.02
60246;BME280;46107;53.356;-1.524;2023-05-11T01:43:38;98628.15;;;11.62;59.67
60246;BME280;46107;53.356;-1.524;2023-05-11T01:46:09;98629.36;;;12.23;58.84
60246;BME280;46107;53.356;-1.524;2023-05-11T01:48:41;98631.01;;;11.29;60.36
60246;BME280;46107;53.356;-1.524;2023-05-11T01:51:10;98638.21;;;10.25;64.03
60246;BME280;46107;53.356;-1.524;2023-05-11T01:53:38;98641.47;;;10.66;63.26
60246;BME280;46107;53.356;-1.524;2023-05-11T01:56:08;98640.82;;;11.92;60.96
60246;BME280;46107;53.356;-1.524;2023-05-11T01:58:38;98643.52;;;11.36;61.68
60246;BME280;46107;53.356;-1.524;2023-05-11T02:01:08;98646.96;;;10.92;61.65
60246;BME280;46107;53.356;-1.524;2023-05-11T02:03:37;98646.65;;;11.48;60.90
60246;BME280;46107;53.356;-1.524;2023-05-11T02:06:07;98654.50;;;11.03;61.96
60246;BME280;46107;53.356;-1.524;2023-05-11T02:08:37;98649.55;;;11.99;58.37
60246;BME280;46107;53.356;-1.524;2023-05-11T02:11:06;98651.39;;;11.65;59.44
60246;BME280;46107;53.356;-1.524;2023-05-11T02:13:35;98652.88;;;12.72;56.52
60246;BME280;46107;53.356;-1.524;2023-05-11T02:16:05;98651.31;;;12.10;58.73
60246;BME280;46107;53.356;-1.524;2023-05-11T02:18:35;98649.47;;;12.06;58.00
60246;BME280;46107;53.356;-1.524;2023-05-11T02:21:07;98649.64;;;11.71;58.48
60246;BME280;46107;53.356;-1.524;2023-05-11T02:23:36;98650.10;;;12.09;58.55
60246;BME280;46107;53.356;-1.524;2023-05-11T02:26:05;98652.67;;;12.79;56.20
60246;BME280;46107;53.356;-1.524;2023-05-11T02:28:34;98653.53;;;12.62;55.48
60246;BME280;46107;53.356;-1.524;2023-05-11T02:31:06;98653.69;;;12.34;56.61
60246;BME280;46107;53.356;-1.524;2023-05-11T02:33:40;98659.51;;;12.74;56.43
60246;BME280;46107;53.356;-1.524;2023-05-11T02:36:13;98665.07;;;12.18;56.50
60246;BME280;46107;53.356;-1.524;2023-05-11T02:38:44;98666.17;;;12.67;56.57
60246;BME280;46107;53.356;-1.524;2023-05-11T02:41:17;98667.39;;;12.75;56.04
60246;BME280;46107;53.356;-1.524;2023-05-11T02:43:50;98668.64;;;12.65;56.75
60246;BME280;46107;53.356;-1.524;2023-05-11T02:46:22;98671.90;;;12.30;57.10
60246;BME280;46107;53.356;-1.524;2023-05-11T02:48:54;98670.86;;;13.11;55.44
60246;BME280;46107;53.356;-1.524;2023-05-11T02:51:25;98674.27;;;12.61;57.66
60246;BME280;46107;53.356;-1.524;2023-05-11T02:53:55;98670.58;;;12.43;57.46
60246;BME280;46107;53.356;-1.524;2023-05-11T02:56:24;98674.82;;;12.73;56.20
60246;BME280;46107;53.356;-1.524;2023-05-11T02:58:51;98676.75;;;12.66;56.11
60246;BME280;46107;53.356;-1.524;2023-05-11T03:01:19;98677.96;;;12.31;57.87
60246;BME280;46107;53.356;-1.524;2023-05-11T03:03:47;98675.70;;;12.04;57.43
60246;BME280;46107;53.356;-1.524;2023-05-11T03:06:14;98676.09;;;11.86;58.08
60246;BME280;46107;53.356;-1.524;2023-05-11T03:08:42;98678.55;;;12.44;56.35
60246;BME280;46107;53.356;-1.524;2023-05-11T03:11:22;98678.03;;;12.29;55.77
60246;BME280;46107;53.356;-1.524;2023-05-11T03:13:51;98677.24;;;12.55;57.54
60246;BME280;46107;53.356;-1.524;2023-05-11T03:16:20;98677.64;;;12.68;55.23
60246;BME280;46107;53.356;-1.524;2023-05-11T03:18:48;98679.62;;;12.89;55.51
60246;BME280;46107;53.356;-1.524;2023-05-11T03:21:18;98681.72;;;12.45;56.72
60246;BME280;46107;53.356;-1.524;2023-05-11T03:23:47;98680.86;;;12.40;57.39
60246;BME280;46107;53.356;-1.524;2023-05-11T03:26:16;98681.02;;;12.30;57.12
60246;BME280;46107;53.356;-1.524;2023-05-11T03:28:46;98682.85;;;12.61;57.06
60246;BME280;46107;53.356;-1.524;2023-05-11T03:31:14;98679.18;;;11.93;57.63
60246;BME280;46107;53.356;-1.524;2023-05-11T03:33:42;98678.92;;;12.31;57.04
60246;BME280;46107;53.356;-1.524;2023-05-11T03:36:10;98675.40;;;11.60;57.80
60246;BME280;46107;53.356;-1.524;2023-05-11T03:38:38;98675.38;;;12.69;55.82
60246;BME280;46107;53.356;-1.524;2023-05-11T03:41:06;98676.35;;;12.45;56.39
60246;BME280;46107;53.356;-1.524;2023-05-11T03:43:34;98673.86;;;12.25;56.94
60246;BME280;46107;53.356;-1.524;2023-05-11T03:46:03;98675.02;;;11.96;58.18
60246;BME280;46107;53.356;-1.524;2023-05-11T03:48:31;98676.03;;;12.25;57.70
60246;BME280;46107;53.356;-1.524;2023-05-11T03:50:59;98677.38;;;11.89;58.53
60246;BME280;46107;53.356;-1.524;2023-05-11T03:53:27;98677.21;;;12.52;56.99
60246;BME280;46107;53.356;-1.524;2023-05-11T03:55:54;98677.41;;;12.57;56.88
60246;BME280;46107;53.356;-1.524;2023-05-11T03:58:22;98676.98;;;12.09;58.00
60246;BME280;46107;53.356;-1.524;2023-05-11T04:00:51;98680.07;;;12.17;58.28
60246;BME280;46107;53.356;-1.524;2023-05-11T04:03:19;98682.33;;;12.29;58.19
60246;BME280;46107;53.356;-1.524;2023-05-11T04:05:46;98683.65;;;11.90;59.94
60246;BME280;46107;53.356;-1.524;2023-05-11T04:08:14;98686.46;;;11.42;59.74
60246;BME280;46107;53.356;-1.524;2023-05-11T04:10:41;98687.60;;;12.00;58.98
60246;BME280;46107;53.356;-1.524;2023-05-11T04:13:08;98699.07;;;11.00;61.50
60246;BME280;46107;53.356;-1.524;2023-05-11T04:15:36;98701.82;;;11.35;61.59
60246;BME280;46107;53.356;-1.524;2023-05-11T04:18:04;98698.92;;;11.56;61.53
60246;BME280;46107;53.356;-1.524;2023-05-11T04:20:31;98691.86;;;11.59;60.38
60246;BME280;46107;53.356;-1.524;2023-05-11T04:22:58;98694.14;;;11.55;60.40
60246;BME280;46107;53.356;-1.524;2023-05-11T04:25:26;98694.88;;;11.69;59.93
60246;BME280;46107;53.356;-1.524;2023-05-11T04:27:53;98697.75;;;11.41;59.01
60246;BME280;46107;53.356;-1.524;2023-05-11T04:30:20;98698.93;;;12.07;58.83
60246;BME280;46107;53.356;-1.524;2023-05-11T04:32:48;98702.14;;;11.75;58.55
60246;BME280;46107;53.356;-1.524;2023-05-11T04:35:15;98701.51;;;11.50;59.90
60246;BME280;46107;53.356;-1.524;2023-05-11T04:37:42;98706.19;;;12.07;58.00
60246;BME280;46107;53.356;-1.524;2023-05-11T04:40:11;98707.71;;;11.83;58.73
60246;BME280;46107;53.356;-1.524;2023-05-11T04:42:39;98711.66;;;11.75;59.72
60246;BME280;46107;53.356;-1.524;2023-05-11T04:45:07;98713.98;;;11.28;60.66
60246;BME280;46107;53.356;-1.524;2023-05-11T04:47:36;98710.30;;;11.84;60.92
60246;BME280;46107;53.356;-1.524;2023-05-11T04:50:03;98720.99;;;10.89;61.26
60246;BME280;46107;53.356;-1.524;2023-05-11T04:52:31;98721.89;;;11.29;62.83
60246;BME280;46107;53.356;-1.524;2023-05-11T04:54:59;98717.99;;;11.83;59.13
60246;BME280;46107;53.356;-1.524;2023-05-11T04:57:26;98715.24;;;11.86;59.71
60246;BME280;46107;53.356;-1.524;2023-05-11T04:59:53;98714.23;;;12.02;59.05
60246;BME280;46107;53.356;-1.524;2023-05-11T05:02:21;98712.49;;;11.97;58.81
60246;BME280;46107;53.356;-1.524;2023-05-11T05:04:49;98713.34;;;12.26;59.11
60246;BME280;46107;53.356;-1.524;2023-05-11T05:07:16;98716.56;;;12.24;58.83
60246;BME280;46107;53.356;-1.524;2023-05-11T05:09:43;98718.69;;;12.57;58.80
60246;BME280;46107;53.356;-1.524;2023-05-11T05:12:11;98721.34;;;12.32;57.99
60246;BME280;46107;53.356;-1.524;2023-05-11T05:14:38;98722.39;;;12.91;57.71
60246;BME280;46107;53.356;-1.524;2023-05-11T05:17:06;98724.78;;;12.12;59.35
60246;BME280;46107;53.356;-1.524;2023-05-11T05:19:33;98724.93;;;11.93;59.97
60246;BME280;46107;53.356;-1.524;2023-05-11T05:22:01;98724.05;;;12.27;60.23
60246;BME280;46107;53.356;-1.524;2023-05-11T05:24:28;98725.66;;;12.20;59.31
60246;BME280;46107;53.356;-1.524;2023-05-11T05:26:55;98729.86;;;11.90;59.39
60246;BME280;46107;53.356;-1.524;2023-05-11T05:29:24;98730.50;;;12.10;60.55
60246;BME280;46107;53.356;-1.524;2023-05-11T05:31:51;98734.05;;;12.72;57.54
60246;BME280;46107;53.356;-1.524;2023-05-11T05:34:18;98735.35;;;11.55;60.24
60246;BME280;46107;53.356;-1.524;2023-05-11T05:36:46;98739.98;;;11.26;61.62
60246;BME280;46107;53.356;-1.524;2023-05-11T05:39:13;98736.06;;;11.62;60.87
60246;BME280;46107;53.356;-1.524;2023-05-11T05:41:41;98739.64;;;11.67;60.36
60246;BME280;46107;53.356;-1.524;2023-05-11T05:44:08;98743.14;;;12.03;61.10
60246;BME280;46107;53.356;-1.524;2023-05-11T05:46:35;98746.26;;;11.65;61.88
60246;BME280;46107;53.356;-1.524;2023-05-11T05:49:02;98750.98;;;12.17;60.71
60246;BME280;46107;53.356;-1.524;2023-05-11T05:51:31;98751.61;;;11.94;62.24
60246;BME280;46107;53.356;-1.524;2023-05-11T05:53:59;98755.10;;;12.17;60.65
60246;BME280;46107;53.356;-1.524;2023-05-11T05:56:26;98760.78;;;12.32;61.28
60246;BME280;46107;53.356;-1.524;2023-05-11T05:58:54;98763.13;;;12.89;59.45
60246;BME280;46107;53.356;-1.524;2023-05-11T06:01:21;98770.50;;;11.04;64.28
60246;BME280;46107;53.356;-1.524;2023-05-11T06:03:49;98769.22;;;12.56;60.46
60246;BME280;46107;53.356;-1.524;2023-05-11T06:06:16;98777.40;;;11.56;62.42
60246;BME280;46107;53.356;-1.524;2023-05-11T06:08:44;98773.28;;;12.82;60.60
60246;BME280;46107;53.356;-1.524;2023-05-11T06:11:12;98772.57;;;12.22;60.07
60246;BME280;46107;53.356;-1.524;2023-05-11T06:13:39;98778.82;;;11.68;62.08
60246;BME280;46107;53.356;-1.524;2023-05-11T06:16:07;98776.30;;;12.16;61.38
60246;BME280;46107;53.356;-1.524;2023-05-11T06:18:35;98777.24;;;12.42;60.51
60246;BME280;46107;53.356;-1.524;2023-05-11T06:21:02;98777.71;;;12.40;61.16
60246;BME280;46107;53.356;-1.524;2023-05-11T06:23:30;98777.97;;;12.45;60.42
60246;BME280;46107;53.356;-1.524;2023-05-11T06:25:58;98780.08;;;13.15;58.50
60246;BME280;46107;53.356;-1.524;2023-05-11T06:28:26;98780.82;;;12.94;58.30
60246;BME280;46107;53.356;-1.524;2023-05-11T06:30:55;98780.49;;;12.93;59.10
60246;BME280;46107;53.356;-1.524;2023-05-11T06:33:23;98783.56;;;13.55;57.45
60246;BME280;46107;53.356;-1.524;2023-05-11T06:35:50;98785.20;;;13.16;59.19
60246;BME280;46107;53.356;-1.524;2023-05-11T06:38:18;98786.12;;;13.29;58.85
60246;BME280;46107;53.356;-1.524;2023-05-11T06:40:46;98788.80;;;12.99;60.44
60246;BME280;46107;53.356;-1.524;2023-05-11T06:43:14;98790.55;;;13.43;58.65
60246;BME280;46107;53.356;-1.524;2023-05-11T06:45:43;98791.88;;;13.58;57.88
60246;BME280;46107;53.356;-1.524;2023-05-11T06:48:11;98795.02;;;13.35;57.98
60246;BME280;46107;53.356;-1.524;2023-05-11T06:50:39;98794.45;;;13.54;57.80
60246;BME280;46107;53.356;-1.524;2023-05-11T06:53:07;98796.42;;;13.73;57.81
60246;BME280;46107;53.356;-1.524;2023-05-11T06:55:34;98795.13;;;13.18;58.58
60246;BME280;46107;53.356;-1.524;2023-05-11T06:58:01;98797.12;;;13.11;58.25
60246;BME280;46107;53.356;-1.524;2023-05-11T07:00:30;98799.65;;;13.31;57.76
60246;BME280;46107;53.356;-1.524;2023-05-11T07:02:57;98800.63;;;13.20;59.78
60246;BME280;46107;53.356;-1.524;2023-05-11T07:05:25;98801.38;;;14.01;57.62
60246;BME280;46107;53.356;-1.524;2023-05-11T07:07:52;98801.71;;;13.98;57.31
60246;BME280;46107;53.356;-1.524;2023-05-11T07:10:20;98801.87;;;12.97;60.16
60246;BME280;46107;53.356;-1.524;2023-05-11T07:12:48;98803.28;;;13.33;60.61
60246;BME280;46107;53.356;-1.524;2023-05-11T07:15:16;98803.84;;;13.68;60.46
60246;BME280;46107;53.356;-1.524;2023-05-11T07:17:44;98806.10;;;13.38;60.28
60246;BME280;46107;53.356;-1.524;2023-05-11T07:20:12;98807.53;;;12.75;59.58
60246;BME280;46107;53.356;-1.524;2023-05-11T07:22:39;98808.35;;;12.06;61.58
60246;BME280;46107;53.356;-1.524;2023-05-11T07:25:08;98809.44;;;13.19;59.29
60246;BME280;46107;53.356;-1.524;2023-05-11T07:27:37;98812.99;;;14.15;57.25
60246;BME280;46107;53.356;-1.524;2023-05-11T07:30:05;98810.46;;;12.90;58.87
60246;BME280;46107;53.356;-1.524;2023-05-11T07:32:33;98810.77;;;13.09;60.57
60246;BME280;46107;53.356;-1.524;2023-05-11T07:35:00;98808.78;;;12.92;59.51
60246;BME280;46107;53.356;-1.524;2023-05-11T07:37:28;98812.97;;;12.84;61.27
60246;BME280;46107;53.356;-1.524;2023-05-11T07:39:56;98812.31;;;13.38;60.13
60246;BME280;46107;53.356;-1.524;2023-05-11T07:42:24;98811.73;;;13.18;59.57
60246;BME280;46107;53.356;-1.524;2023-05-11T07:44:51;98811.48;;;12.66;63.16
60246;BME280;46107;53.356;-1.524;2023-05-11T07:47:18;98817.25;;;12.20;62.37
60246;BME280;46107;53.356;-1.524;2023-05-11T07:49:46;98815.14;;;12.52;62.35
60246;BME280;46107;53.356;-1.524;2023-05-11T07:52:13;98811.60;;;12.74;61.61
60246;BME280;46107;53.356;-1.524;2023-05-11T07:54:40;98812.89;;;12.95;61.70
60246;BME280;46107;53.356;-1.524;2023-05-11T07:57:09;98814.99;;;12.56;63.99
60246;BME280;46107;53.356;-1.524;2023-05-11T07:59:36;98812.82;;;12.92;61.16
60246;BME280;46107;53.356;-1.524;2023-05-11T08:02:05;98816.17;;;13.69;59.57
60246;BME280;46107;53.356;-1.524;2023-05-11T08:04:33;98822.29;;;13.59;57.79
60246;BME280;46107;53.356;-1.524;2023-05-11T08:07:00;98823.31;;;13.36;57.94
60246;BME280;46107;53.356;-1.524;2023-05-11T08:09:28;98825.32;;;13.93;54.80
60246;BME280;46107;53.356;-1.524;2023-05-11T08:11:56;98826.24;;;14.61;51.54
60246;BME280;46107;53.356;-1.524;2023-05-11T08:14:24;98826.58;;;14.58;53.66
60246;BME280;46107;53.356;-1.524;2023-05-11T08:16:51;98831.43;;;14.23;52.67
60246;BME280;46107;53.356;-1.524;2023-05-11T08:19:19;98832.20;;;13.21;55.19
60246;BME280;46107;53.356;-1.524;2023-05-11T08:21:47;98833.21;;;14.30;57.48
60246;BME280;46107;53.356;-1.524;2023-05-11T08:24:14;98833.63;;;14.43;53.85
60246;BME280;46107;53.356;-1.524;2023-05-11T08:26:42;98832.46;;;14.63;49.51
60246;BME280;46107;53.356;-1.524;2023-05-11T08:29:10;98830.91;;;14.72;50.44
60246;BME280;46107;53.356;-1.524;2023-05-11T08:31:38;98836.35;;;14.38;51.59
60246;BME280;46107;53.356;-1.524;2023-05-11T08:34:06;98833.72;;;14.12;52.31
60246;BME280;46107;53.356;-1.524;2023-05-11T08:36:34;98836.73;;;14.63;52.09
60246;BME280;46107;53.356;-1.524;2023-05-11T08:39:02;98837.91;;;13.52;52.63
60246;BME280;46107;53.356;-1.524;2023-05-11T08:41:31;98839.51;;;15.65;47.06
60246;BME280;46107;53.356;-1.524;2023-05-11T08:43:59;98840.48;;;15.08;52.22
60246;BME280;46107;53.356;-1.524;2023-05-11T08:46:29;98842.61;;;14.38;55.62
60246;BME280;46107;53.356;-1.524;2023-05-11T08:48:57;98838.56;;;14.18;55.68
60246;BME280;46107;53.356;-1.524;2023-05-11T08:51:25;98839.55;;;14.24;53.91
60246;BME280;46107;53.356;-1.524;2023-05-11T08:53:53;98841.31;;;13.38;56.26
60246;BME280;46107;53.356;-1.524;2023-05-11T08:56:20;98841.33;;;15.42;50.92
60246;BME280;46107;53.356;-1.524;2023-05-11T08:58:49;98845.69;;;15.24;50.93
60246;BME280;46107;53.356;-1.524;2023-05-11T09:01:18;98850.43;;;14.11;52.33
60246;BME280;46107;53.356;-1.524;2023-05-11T09:03:47;98855.72;;;13.56;56.02
60246;BME280;46107;53.356;-1.524;2023-05-11T09:06:16;98854.59;;;14.23;56.54
60246;BME280;46107;53.356;-1.524;2023-05-11T09:08:45;98858.07;;;14.04;59.31
60246;BME280;46107;53.356;-1.524;2023-05-11T09:11:13;98862.09;;;14.35;55.67
60246;BME280;46107;53.356;-1.524;2023-05-11T09:13:41;98869.35;;;13.87;59.60
60246;BME280;46107;53.356;-1.524;2023-05-11T09:16:09;98871.01;;;12.60;62.63
60246;BME280;46107;53.356;-1.524;2023-05-11T09:18:45;98874.47;;;12.59;61.32
60246;BME280;46107;53.356;-1.524;2023-05-11T09:21:13;98878.08;;;11.00;65.96
60246;BME280;46107;53.356;-1.524;2023-05-11T09:23:41;98873.02;;;10.23;69.28
60246;BME280;46107;53.356;-1.524;2023-05-11T09:26:13;98867.36;;;10.33;72.95
60246;BME280;46107;53.356;-1.524;2023-05-11T09:28:48;98868.74;;;11.46;67.28
60246;BME280;46107;53.356;-1.524;2023-05-11T09:31:34;98868.77;;;11.46;68.59
60246;BME280;46107;53.356;-1.524;2023-05-11T09:34:11;98868.38;;;12.40;66.45
60246;BME280;46107;53.356;-1.524;2023-05-11T09:36:39;98867.52;;;10.51;72.69
60246;BME280;46107;53.356;-1.524;2023-05-11T09:39:07;98868.02;;;10.99;74.81
60246;BME280;46107;53.356;-1.524;2023-05-11T09:41:36;98868.05;;;11.10;74.06
60246;BME280;46107;53.356;-1.524;2023-05-11T09:44:06;98869.86;;;11.55;70.74
60246;BME280;46107;53.356;-1.524;2023-05-11T09:46:35;98870.88;;;10.82;74.70
60246;BME280;46107;53.356;-1.524;2023-05-11T09:49:03;98870.50;;;11.11;71.07
60246;BME280;46107;53.356;-1.524;2023-05-11T09:51:32;98874.54;;;11.30;71.57
60246;BME280;46107;53.356;-1.524;2023-05-11T09:54:01;98876.60;;;11.37;70.53
60246;BME280;46107;53.356;-1.524;2023-05-11T09:56:45;98877.39;;;10.43;71.95
60246;BME280;46107;53.356;-1.524;2023-05-11T09:59:15;98882.10;;;11.83;70.96
60246;BME280;46107;53.356;-1.524;2023-05-11T10:01:44;98881.35;;;11.81;67.05
60246;BME280;46107;53.356;-1.524;2023-05-11T10:04:11;98882.63;;;11.72;68.24
60246;BME280;46107;53.356;-1.524;2023-05-11T10:06:47;98881.81;;;10.45;70.63
60246;BME280;46107;53.356;-1.524;2023-05-11T10:09:16;98885.21;;;11.42;69.67
60246;BME280;46107;53.356;-1.524;2023-05-11T10:11:45;98886.84;;;11.31;71.07
60246;BME280;46107;53.356;-1.524;2023-05-11T10:14:13;98889.03;;;11.02;72.68
60246;BME280;46107;53.356;-1.524;2023-05-11T10:16:41;98889.18;;;10.39;72.60
60246;BME280;46107;53.356;-1.524;2023-05-11T10:19:10;98888.51;;;11.07;70.10
60246;BME280;46107;53.356;-1.524;2023-05-11T10:21:38;98894.00;;;9.77;76.26
60246;BME280;46107;53.356;-1.524;2023-05-11T10:24:06;98897.17;;;9.77;75.90
60246;BME280;46107;53.356;-1.524;2023-05-11T10:26:34;98899.49;;;10.14;74.66
60246;BME280;46107;53.356;-1.524;2023-05-11T10:29:03;98897.78;;;11.19;71.69
60246;BME280;46107;53.356;-1.524;2023-05-11T10:31:31;98897.26;;;11.03;72.60
60246;BME280;46107;53.356;-1.524;2023-05-11T10:34:00;98899.36;;;11.49;72.69
60246;BME280;46107;53.356;-1.524;2023-05-11T10:36:29;98903.75;;;11.24;71.51
60246;BME280;46107;53.356;-1.524;2023-05-11T10:38:57;98907.54;;;12.13;71.03
60246;BME280;46107;53.356;-1.524;2023-05-11T10:41:33;98909.65;;;12.28;67.42
60246;BME280;46107;53.356;-1.524;2023-05-11T10:44:22;98911.82;;;12.65;66.72
60246;BME280;46107;53.356;-1.524;2023-05-11T10:47:07;98914.91;;;12.26;70.12
60246;BME280;46107;53.356;-1.524;2023-05-11T10:49:53;98920.22;;;12.38;67.72
60246;BME280;46107;53.356;-1.524;2023-05-11T10:52:44;98915.99;;;13.38;62.92
60246;BME280;46107;53.356;-1.524;2023-05-11T10:55:19;98922.36;;;13.11;66.15
60246;BME280;46107;53.356;-1.524;2023-05-11T10:58:02;98924.03;;;13.07;65.12
60246;BME280;46107;53.356;-1.524;2023-05-11T11:01:38;98926.05;;;13.26;64.24
60246;BME280;46107;53.356;-1.524;2023-05-11T11:04:08;98928.52;;;13.02;64.47
60246;BME280;46107;53.356;-1.524;2023-05-11T11:06:38;98935.09;;;12.24;68.41
60246;BME280;46107;53.356;-1.524;2023-05-11T11:09:07;98934.92;;;12.39;68.66
60246;BME280;46107;53.356;-1.524;2023-05-11T11:11:37;98936.47;;;12.65;69.22
60246;BME280;46107;53.356;-1.524;2023-05-11T11:14:06;98934.58;;;12.21;70.03
60246;BME280;46107;53.356;-1.524;2023-05-11T11:16:35;98928.20;;;13.41;68.11
60246;BME280;46107;53.356;-1.524;2023-05-11T11:19:35;98931.18;;;12.63;70.06
60246;BME280;46107;53.356;-1.524;2023-05-11T11:22:03;98921.46;;;13.35;67.12
60246;BME280;46107;53.356;-1.524;2023-05-11T11:24:46;98918.71;;;14.39;62.10
60246;BME280;46107;53.356;-1.524;2023-05-11T11:27:14;98918.91;;;13.05;66.05
60246;BME280;46107;53.356;-1.524;2023-05-11T11:30:15;98913.85;;;14.06;62.49
60246;BME280;46107;53.356;-1.524;2023-05-11T11:32:43;98914.77;;;13.96;62.66
60246;BME280;46107;53.356;-1.524;2023-05-11T11:35:44;98910.79;;;13.14;67.03
60246;BME280;46107;53.356;-1.524;2023-05-11T11:38:15;98910.59;;;12.91;66.90
60246;BME280;46107;53.356;-1.524;2023-05-11T11:40:45;98916.63;;;12.37;70.07
60246;BME280;46107;53.356;-1.524;2023-05-11T11:43:15;98912.24;;;11.78;71.28
60246;BME280;46107;53.356;-1.524;2023-05-11T11:45:50;98906.46;;;13.05;64.48
60246;BME280;46107;53.356;-1.524;2023-05-11T11:48:22;98909.03;;;12.72;69.91
60246;BME280;46107;53.356;-1.524;2023-05-11T11:51:01;98912.46;;;11.67;72.01
60246;BME280;46107;53.356;-1.524;2023-05-11T11:54:01;98904.45;;;13.00;68.36
60246;BME280;46107;53.356;-1.524;2023-05-11T11:56:40;98903.75;;;13.34;67.84
60246;BME280;46107;53.356;-1.524;2023-05-11T11:59:09;98906.54;;;13.81;67.79
60246;BME280;46107;53.356;-1.524;2023-05-11T12:01:38;98904.32;;;13.64;69.95
60246;BME280;46107;53.356;-1.524;2023-05-11T12:04:37;98901.44;;;13.06;74.88
60246;BME280;46107;53.356;-1.524;2023-05-11T12:07:07;98903.51;;;12.45;80.03
60246;BME280;46107;53.356;-1.524;2023-05-11T12:09:37;98906.04;;;12.50;78.64
60246;BME280;46107;53.356;-1.524;2023-05-11T12:12:05;98910.50;;;13.17;80.88
60246;BME280;46107;53.356;-1.524;2023-05-11T12:14:34;98908.95;;;13.45;74.66
60246;BME280;46107;53.356;-1.524;2023-05-11T12:17:06;98909.58;;;14.62;72.99
60246;BME280;46107;53.356;-1.524;2023-05-11T12:19:35;98908.35;;;14.34;76.74
60246;BME280;46107;53.356;-1.524;2023-05-11T12:22:02;98912.59;;;13.89;79.94
60246;BME280;46107;53.356;-1.524;2023-05-11T12:24:30;98917.19;;;14.91;71.85
60246;BME280;46107;53.356;-1.524;2023-05-11T12:26:57;98919.11;;;14.18;70.69
60246;BME280;46107;53.356;-1.524;2023-05-11T12:29:29;98921.47;;;14.20;73.66
60246;BME280;46107;53.356;-1.524;2023-05-11T12:31:58;98918.68;;;13.75;75.53
60246;BME280;46107;53.356;-1.524;2023-05-11T12:34:26;98920.82;;;13.17;74.73
60246;BME280;46107;53.356;-1.524;2023-05-11T12:36:53;98926.46;;;13.40;74.09
60246;BME280;46107;53.356;-1.524;2023-05-11T12:39:24;98924.54;;;14.18;69.16
60246;BME280;46107;53.356;-1.524;2023-05-11T12:41:53;98926.79;;;13.26;67.60
60246;BME280;46107;53.356;-1.524;2023-05-11T12:44:23;98926.48;;;13.51;66.08
60246;BME280;46107;53.356;-1.524;2023-05-11T12:46:51;98928.20;;;12.99;70.65
60246;BME280;46107;53.356;-1.524;2023-05-11T12:49:21;98933.32;;;12.56;81.49
60246;BME280;46107;53.356;-1.524;2023-05-11T12:52:08;98932.14;;;14.78;74.85
60246;BME280;46107;53.356;-1.524;2023-05-11T12:54:37;98936.34;;;13.81;72.08
60246;BME280;46107;53.356;-1.524;2023-05-11T12:57:07;98932.92;;;13.55;71.02
60246;BME280;46107;53.356;-1.524;2023-05-11T12:59:36;98930.41;;;13.21;62.39
60246;BME280;46107;53.356;-1.524;2023-05-11T13:02:06;98931.66;;;13.26;66.62
60246;BME280;46107;53.356;-1.524;2023-05-11T13:04:33;98931.11;;;13.36;67.02
60246;BME280;46107;53.356;-1.524;2023-05-11T13:07:01;98932.82;;;13.72;63.95